ITY736 LIRN-LIRF
Flight info
| Callsign | ITY736 |
|---|---|
| Flight time | 0h 30m |
| Altitude | 18000 |
| Route | SIPRO7H SIPRO Z803 LAT LAT3A |
| Aircraft | A20N/M-SDE2E3FGHIRWXY/LB1 |
Departure
| Time | 2026-05-07 21:43 |
|---|---|
| Airport | Naples International Airport (LIRN) |
Arrival
| Time | 2026-05-07 22:13 |
|---|---|
| Airport | Rome–Fiumicino Leonardo da Vinci International Airport (LIRF) |
| Time | Latitude | Longitude | Altitude | Speed | Heading |
|---|---|---|---|---|---|
| 2026-05-07 21:20 | 40.87867 | 14.28132 | 301 ft | 0 kts | 141° |
| 2026-05-07 21:28 | 40.87868 | 14.28131 | 297 ft | 1 kts | 141° |
| 2026-05-07 21:29 | 40.87887 | 14.28111 | 300 ft | 4 kts | 141° |
| 2026-05-07 21:29 | 40.87905 | 14.28091 | 299 ft | 2 kts | 140° |
| 2026-05-07 21:29 | 40.87924 | 14.28076 | 301 ft | 4 kts | 188° |
| 2026-05-07 21:29 | 40.87941 | 14.28092 | 301 ft | 4 kts | 231° |
| 2026-05-07 21:30 | 40.87950 | 14.28105 | 299 ft | 1 kts | 231° |
| 2026-05-07 21:32 | 40.87941 | 14.28091 | 301 ft | 7 kts | 231° |
| 2026-05-07 21:32 | 40.87913 | 14.28045 | 302 ft | 5 kts | 231° |
| 2026-05-07 21:32 | 40.87895 | 14.28016 | 300 ft | 3 kts | 231° |
| 2026-05-07 21:33 | 40.87869 | 14.27974 | 302 ft | 12 kts | 231° |
| 2026-05-07 21:33 | 40.87865 | 14.27885 | 305 ft | 10 kts | 316° |
| 2026-05-07 21:33 | 40.87917 | 14.27827 | 305 ft | 10 kts | 321° |
| 2026-05-07 21:33 | 40.87975 | 14.27784 | 302 ft | 9 kts | 355° |
| 2026-05-07 21:34 | 40.88006 | 14.27814 | 301 ft | 9 kts | 57° |
| 2026-05-07 21:34 | 40.88013 | 14.27828 | 300 ft | 0 kts | 58° |
| 2026-05-07 21:34 | 40.88015 | 14.27833 | 299 ft | 7 kts | 58° |
| 2026-05-07 21:34 | 40.88035 | 14.27881 | 299 ft | 0 kts | 58° |
| 2026-05-07 21:35 | 40.88054 | 14.27925 | 301 ft | 20 kts | 65° |
| 2026-05-07 21:35 | 40.88071 | 14.27967 | 301 ft | 0 kts | 55° |
| 2026-05-07 21:36 | 40.88078 | 14.27980 | 298 ft | 5 kts | 55° |
| 2026-05-07 21:36 | 40.88074 | 14.28038 | 296 ft | 8 kts | 127° |
| 2026-05-07 21:36 | 40.88029 | 14.28080 | 298 ft | 8 kts | 150° |
| 2026-05-07 21:36 | 40.87975 | 14.28112 | 299 ft | 9 kts | 175° |
| 2026-05-07 21:37 | 40.87929 | 14.28072 | 299 ft | 8 kts | 231° |
| 2026-05-07 21:37 | 40.87899 | 14.28021 | 302 ft | 6 kts | 230° |
| 2026-05-07 21:37 | 40.87859 | 14.27957 | 303 ft | 9 kts | 230° |
| 2026-05-07 21:37 | 40.87849 | 14.27915 | 303 ft | 3 kts | 281° |
| 2026-05-07 21:38 | 40.87851 | 14.27909 | 304 ft | 0 kts | 289° |
| 2026-05-07 21:40 | 40.87885 | 14.27861 | 303 ft | 21 kts | 320° |
| 2026-05-07 21:40 | 40.87984 | 14.27780 | 301 ft | 4 kts | 15° |
| 2026-05-07 21:40 | 40.88014 | 14.27830 | 302 ft | 16 kts | 58° |
| 2026-05-07 21:40 | 40.88030 | 14.27868 | 302 ft | 0 kts | 56° |
| 2026-05-07 21:42 | 40.88068 | 14.27942 | 300 ft | 43 kts | 56° |
| 2026-05-07 21:42 | 40.88401 | 14.28646 | 282 ft | 134 kts | 58° |
| 2026-05-07 21:42 | 40.88972 | 14.29871 | 642 ft | 168 kts | 55° |
| 2026-05-07 21:43 | 40.89641 | 14.31276 | 1242 ft | 195 kts | 57° |
| 2026-05-07 21:43 | 40.90386 | 14.32852 | 2391 ft | 209 kts | 58° |
| 2026-05-07 21:43 | 40.91158 | 14.34496 | 3602 ft | 209 kts | 58° |
| 2026-05-07 21:43 | 40.91921 | 14.36122 | 4783 ft | 210 kts | 59° |
| 2026-05-07 21:44 | 40.92700 | 14.37765 | 6091 ft | 216 kts | 57° |
| 2026-05-07 21:44 | 40.93757 | 14.39276 | 7158 ft | 233 kts | 38° |
| 2026-05-07 21:44 | 40.95257 | 14.40129 | 8330 ft | 247 kts | 9° |
| 2026-05-07 21:44 | 40.96995 | 14.39915 | 9558 ft | 258 kts | 349° |
| 2026-05-07 21:45 | 40.98743 | 14.39227 | 10663 ft | 265 kts | 342° |
| 2026-05-07 21:45 | 41.00498 | 14.38440 | 11845 ft | 269 kts | 340° |
| 2026-05-07 21:45 | 41.02278 | 14.37637 | 13078 ft | 271 kts | 340° |
| 2026-05-07 21:45 | 41.04085 | 14.36831 | 14214 ft | 277 kts | 339° |
| 2026-05-07 21:46 | 41.05932 | 14.36014 | 15262 ft | 282 kts | 339° |
| 2026-05-07 21:46 | 41.07819 | 14.35185 | 16322 ft | 287 kts | 339° |
| 2026-05-07 21:46 | 41.09737 | 14.34344 | 17250 ft | 293 kts | 339° |
| 2026-05-07 21:46 | 41.11596 | 14.33299 | 17778 ft | 299 kts | 329° |
| 2026-05-07 21:47 | 41.13501 | 14.31821 | 17918 ft | 336 kts | 326° |
| 2026-05-07 21:47 | 41.15595 | 14.30071 | 17938 ft | 374 kts | 325° |
| 2026-05-07 21:47 | 41.17854 | 14.28174 | 17941 ft | 390 kts | 325° |
| 2026-05-07 21:47 | 41.20168 | 14.26244 | 17942 ft | 394 kts | 326° |
| 2026-05-07 21:48 | 41.22495 | 14.24308 | 17946 ft | 395 kts | 326° |
| 2026-05-07 21:48 | 41.24826 | 14.22370 | 17949 ft | 395 kts | 326° |
| 2026-05-07 21:48 | 41.27156 | 14.20433 | 17956 ft | 395 kts | 326° |
| 2026-05-07 21:48 | 41.29489 | 14.18492 | 17953 ft | 395 kts | 326° |
| 2026-05-07 21:49 | 41.31817 | 14.16553 | 17957 ft | 395 kts | 326° |
| 2026-05-07 21:49 | 41.34143 | 14.14615 | 17962 ft | 393 kts | 326° |
| 2026-05-07 21:49 | 41.36456 | 14.12686 | 17965 ft | 392 kts | 326° |
| 2026-05-07 21:49 | 41.38734 | 14.10771 | 17966 ft | 392 kts | 324° |
| 2026-05-07 21:50 | 41.40859 | 14.08509 | 17974 ft | 388 kts | 312° |
| 2026-05-07 21:50 | 41.42470 | 14.05656 | 17966 ft | 384 kts | 296° |
| 2026-05-07 21:50 | 41.43419 | 14.02347 | 17982 ft | 380 kts | 281° |
| 2026-05-07 21:50 | 41.43744 | 13.98914 | 17985 ft | 377 kts | 271° |
| 2026-05-07 21:51 | 41.43864 | 13.95420 | 17976 ft | 377 kts | 270° |
| 2026-05-07 21:51 | 41.43952 | 13.91928 | 17974 ft | 377 kts | 270° |
| 2026-05-07 21:51 | 41.44042 | 13.88427 | 17971 ft | 377 kts | 270° |
| 2026-05-07 21:51 | 41.44136 | 13.84931 | 17973 ft | 377 kts | 270° |
| 2026-05-07 21:52 | 41.44234 | 13.81437 | 17965 ft | 377 kts | 270° |
| 2026-05-07 21:52 | 41.44333 | 13.77942 | 17963 ft | 377 kts | 270° |
| 2026-05-07 21:52 | 41.44432 | 13.74501 | 17962 ft | 377 kts | 270° |
| 2026-05-07 21:52 | 41.44532 | 13.71003 | 17962 ft | 377 kts | 270° |
| 2026-05-07 21:53 | 41.44723 | 13.67517 | 17958 ft | 378 kts | 275° |
| 2026-05-07 21:53 | 41.45115 | 13.64039 | 17951 ft | 379 kts | 277° |
| 2026-05-07 21:53 | 41.45555 | 13.60578 | 17961 ft | 379 kts | 278° |
| 2026-05-07 21:53 | 41.46001 | 13.57111 | 17956 ft | 379 kts | 278° |
| 2026-05-07 21:54 | 41.46446 | 13.53640 | 17956 ft | 379 kts | 278° |
| 2026-05-07 21:54 | 41.46881 | 13.50227 | 17948 ft | 379 kts | 277° |
| 2026-05-07 21:54 | 41.47320 | 13.46764 | 17944 ft | 379 kts | 277° |
| 2026-05-07 21:54 | 41.47758 | 13.43288 | 17950 ft | 379 kts | 277° |
| 2026-05-07 21:55 | 41.48195 | 13.39811 | 17943 ft | 379 kts | 277° |
| 2026-05-07 21:55 | 41.48631 | 13.36340 | 17958 ft | 379 kts | 277° |
| 2026-05-07 21:55 | 41.49076 | 13.32761 | 17854 ft | 407 kts | 277° |
| 2026-05-07 21:55 | 41.49547 | 13.28974 | 17584 ft | 418 kts | 278° |
| 2026-05-07 21:56 | 41.50024 | 13.25142 | 17328 ft | 419 kts | 278° |
| 2026-05-07 21:56 | 41.50501 | 13.21306 | 17058 ft | 418 kts | 278° |
| 2026-05-07 21:56 | 41.50972 | 13.17512 | 16838 ft | 404 kts | 278° |
| 2026-05-07 21:56 | 41.51417 | 13.13925 | 16719 ft | 380 kts | 278° |
| 2026-05-07 21:57 | 41.51828 | 13.10596 | 16625 ft | 358 kts | 277° |
| 2026-05-07 21:57 | 41.52220 | 13.07407 | 16506 ft | 339 kts | 277° |
| 2026-05-07 21:57 | 41.52592 | 13.04375 | 16381 ft | 322 kts | 277° |
| 2026-05-07 21:57 | 41.52946 | 13.01464 | 16270 ft | 316 kts | 277° |
| 2026-05-07 21:58 | 41.53296 | 12.98578 | 16036 ft | 316 kts | 277° |
| 2026-05-07 21:58 | 41.53647 | 12.95680 | 15791 ft | 316 kts | 277° |
| 2026-05-07 21:58 | 41.54178 | 12.92844 | 15561 ft | 315 kts | 290° |
| 2026-05-07 21:58 | 41.55333 | 12.90358 | 15316 ft | 318 kts | 309° |
| 2026-05-07 21:59 | 41.56886 | 12.88253 | 15067 ft | 319 kts | 315° |
| 2026-05-07 21:59 | 41.58513 | 12.86240 | 14834 ft | 318 kts | 316° |
| 2026-05-07 21:59 | 41.60147 | 12.84236 | 14594 ft | 317 kts | 316° |
| 2026-05-07 21:59 | 41.61746 | 12.82264 | 14360 ft | 316 kts | 316° |
| 2026-05-07 22:00 | 41.63357 | 12.80265 | 14120 ft | 315 kts | 316° |
| 2026-05-07 22:00 | 41.64961 | 12.78269 | 13891 ft | 315 kts | 316° |
| 2026-05-07 22:00 | 41.66560 | 12.76271 | 13648 ft | 314 kts | 316° |
| 2026-05-07 22:00 | 41.68152 | 12.74281 | 13372 ft | 312 kts | 316° |
| 2026-05-07 22:01 | 41.69732 | 12.72302 | 13118 ft | 310 kts | 316° |
| 2026-05-07 22:01 | 41.71304 | 12.70332 | 12858 ft | 308 kts | 315° |
| 2026-05-07 22:01 | 41.72859 | 12.68381 | 12603 ft | 306 kts | 315° |
| 2026-05-07 22:01 | 41.74409 | 12.66436 | 12346 ft | 305 kts | 315° |
| 2026-05-07 22:02 | 41.75939 | 12.64513 | 12095 ft | 304 kts | 315° |
| 2026-05-07 22:02 | 41.77475 | 12.62581 | 11844 ft | 303 kts | 315° |
| 2026-05-07 22:02 | 41.79009 | 12.60649 | 11593 ft | 302 kts | 315° |
| 2026-05-07 22:02 | 41.80527 | 12.58710 | 11346 ft | 301 kts | 314° |
| 2026-05-07 22:03 | 41.82011 | 12.56736 | 11098 ft | 300 kts | 313° |
| 2026-05-07 22:03 | 41.83482 | 12.54756 | 10859 ft | 299 kts | 313° |
| 2026-05-07 22:03 | 41.84948 | 12.52778 | 10573 ft | 298 kts | 313° |
| 2026-05-07 22:03 | 41.86413 | 12.50799 | 10034 ft | 300 kts | 313° |
| 2026-05-07 22:04 | 41.87869 | 12.48831 | 9405 ft | 301 kts | 314° |
| 2026-05-07 22:04 | 41.89390 | 12.46893 | 8747 ft | 303 kts | 321° |
| 2026-05-07 22:04 | 41.91254 | 12.45569 | 8110 ft | 303 kts | 339° |
| 2026-05-07 22:04 | 41.93270 | 12.44662 | 7359 ft | 307 kts | 342° |
| 2026-05-07 22:05 | 41.95331 | 12.43827 | 6613 ft | 311 kts | 343° |
| 2026-05-07 22:05 | 41.97411 | 12.42988 | 5837 ft | 311 kts | 343° |
| 2026-05-07 22:05 | 41.99451 | 12.42156 | 5064 ft | 301 kts | 343° |
| 2026-05-07 22:05 | 42.01428 | 12.41342 | 4295 ft | 293 kts | 343° |
| 2026-05-07 22:06 | 42.03315 | 12.40484 | 3525 ft | 287 kts | 338° |
| 2026-05-07 22:06 | 42.04970 | 12.39114 | 3147 ft | 270 kts | 321° |
| 2026-05-07 22:06 | 42.06164 | 12.37213 | 3026 ft | 267 kts | 302° |
| 2026-05-07 22:06 | 42.06769 | 12.34850 | 2903 ft | 271 kts | 278° |
| 2026-05-07 22:07 | 42.06525 | 12.32350 | 2778 ft | 273 kts | 252° |
| 2026-05-07 22:07 | 42.05761 | 12.30015 | 2653 ft | 270 kts | 244° |
| 2026-05-07 22:07 | 42.04912 | 12.27775 | 2513 ft | 268 kts | 244° |
| 2026-05-07 22:07 | 42.04081 | 12.25615 | 2506 ft | 251 kts | 243° |
| 2026-05-07 22:08 | 42.03309 | 12.23598 | 2506 ft | 233 kts | 244° |
| 2026-05-07 22:08 | 42.02589 | 12.21772 | 2531 ft | 210 kts | 240° |
| 2026-05-07 22:08 | 42.01643 | 12.20475 | 2496 ft | 189 kts | 204° |
| 2026-05-07 22:08 | 42.00421 | 12.20057 | 2516 ft | 173 kts | 184° |
| 2026-05-07 22:09 | 41.99291 | 12.20078 | 2496 ft | 153 kts | 168° |
| 2026-05-07 22:09 | 41.98288 | 12.20402 | 2495 ft | 146 kts | 159° |
| 2026-05-07 22:09 | 41.97327 | 12.20814 | 2506 ft | 144 kts | 158° |
| 2026-05-07 22:09 | 41.96384 | 12.21215 | 2485 ft | 138 kts | 158° |
| 2026-05-07 22:10 | 41.95483 | 12.21595 | 2285 ft | 133 kts | 159° |
| 2026-05-07 22:10 | 41.94603 | 12.21963 | 2079 ft | 132 kts | 157° |
| 2026-05-07 22:10 | 41.93721 | 12.22333 | 1895 ft | 133 kts | 157° |
| 2026-05-07 22:10 | 41.92838 | 12.22704 | 1714 ft | 133 kts | 157° |
| 2026-05-07 22:11 | 41.91952 | 12.23075 | 1543 ft | 133 kts | 157° |
| 2026-05-07 22:11 | 41.91066 | 12.23446 | 1364 ft | 134 kts | 158° |
| 2026-05-07 22:11 | 41.90180 | 12.23814 | 1195 ft | 132 kts | 159° |
| 2026-05-07 22:11 | 41.89317 | 12.24173 | 992 ft | 130 kts | 159° |
| 2026-05-07 22:12 | 41.88451 | 12.24542 | 856 ft | 132 kts | 161° |
| 2026-05-07 22:12 | 41.87579 | 12.24917 | 715 ft | 130 kts | 162° |
| 2026-05-07 22:12 | 41.86726 | 12.25270 | 544 ft | 130 kts | 161° |
| 2026-05-07 22:12 | 41.85847 | 12.25635 | 361 ft | 133 kts | 163° |
| 2026-05-07 22:13 | 41.84969 | 12.25998 | 152 ft | 131 kts | 165° |
| 2026-05-07 22:13 | 41.84109 | 12.26357 | 34 ft | 125 kts | 164° |
| 2026-05-07 22:13 | 41.83351 | 12.26672 | 18 ft | 95 kts | 163° |
| 2026-05-07 22:13 | 41.82892 | 12.26854 | 18 ft | 40 kts | 169° |
| 2026-05-07 22:14 | 41.82648 | 12.26852 | 14 ft | 36 kts | 194° |
| 2026-05-07 22:14 | 41.82402 | 12.26781 | 14 ft | 36 kts | 185° |
| 2026-05-07 22:14 | 41.82155 | 12.26849 | 14 ft | 38 kts | 162° |
| 2026-05-07 22:14 | 41.81893 | 12.26957 | 16 ft | 40 kts | 163° |
| 2026-05-07 22:15 | 41.81616 | 12.27074 | 15 ft | 43 kts | 163° |
| 2026-05-07 22:15 | 41.81320 | 12.27197 | 17 ft | 46 kts | 163° |
| 2026-05-07 22:15 | 41.81029 | 12.27320 | 16 ft | 30 kts | 162° |
| 2026-05-07 22:15 | 41.80819 | 12.27329 | 16 ft | 32 kts | 189° |
| 2026-05-07 22:16 | 41.80642 | 12.27175 | 16 ft | 33 kts | 251° |
| 2026-05-07 22:16 | 41.80560 | 12.26873 | 16 ft | 36 kts | 250° |
| 2026-05-07 22:16 | 41.80472 | 12.26551 | 20 ft | 38 kts | 249° |
| 2026-05-07 22:16 | 41.80398 | 12.26286 | 19 ft | 27 kts | 250° |
| 2026-05-07 22:17 | 41.80291 | 12.26080 | 18 ft | 29 kts | 204° |
| 2026-05-07 22:17 | 41.80099 | 12.25962 | 17 ft | 32 kts | 205° |
| 2026-05-07 22:17 | 41.79902 | 12.25844 | 17 ft | 10 kts | 191° |
| 2026-05-07 22:17 | 41.79893 | 12.25870 | 18 ft | 11 kts | 109° |
| 2026-05-07 22:18 | 41.79845 | 12.26050 | 17 ft | 22 kts | 113° |
| 2026-05-07 22:18 | 41.79700 | 12.26148 | 17 ft | 14 kts | 187° |
| 2026-05-07 22:18 | 41.79629 | 12.26105 | 17 ft | 0 kts | 207° |
| 2026-05-07 22:19 | 41.79619 | 12.26098 | 17 ft | 3 kts | 207° |
| 2026-05-07 22:19 | 41.79600 | 12.26087 | 19 ft | 0 kts | 204° |
| 2026-05-07 22:19 | 41.79589 | 12.26083 | 19 ft | 1 kts | 177° |
| 2026-05-07 22:19 | 41.79577 | 12.26097 | 17 ft | 7 kts | 132° |
| 2026-05-07 22:20 | 41.79560 | 12.26139 | 17 ft | 2 kts | 115° |
| 2026-05-07 22:20 | 41.79556 | 12.26149 | 17 ft | 1 kts | 115° |
| 2026-05-07 22:20 | 41.79553 | 12.26159 | 17 ft | 0 kts | 115° |
| 2026-05-07 22:22 | 41.79530 | 12.26151 | 17 ft | 0 kts | 115° |